sensor_id;sensor_type;location;lat;lon;timestamp;pressure;altitude;pressure_sealevel;temperature;humidity
16613;BME280;8419;52.358;9.752;2023-08-07T00:00:11;99976.00;;;24.74;47.52
16613;BME280;8419;52.358;9.752;2023-08-07T00:02:57;99979.00;;;24.77;47.53
16613;BME280;8419;52.358;9.752;2023-08-07T00:05:45;99982.00;;;24.81;47.44
16613;BME280;8419;52.358;9.752;2023-08-07T00:08:30;99974.00;;;24.86;47.43
16613;BME280;8419;52.358;9.752;2023-08-07T00:11:16;99980.00;;;24.90;47.38
16613;BME280;8419;52.358;9.752;2023-08-07T00:14:02;99980.00;;;24.93;47.35
16613;BME280;8419;52.358;9.752;2023-08-07T00:16:47;99975.00;;;24.99;47.29
16613;BME280;8419;52.358;9.752;2023-08-07T00:19:33;99980.00;;;25.00;47.30
16613;BME280;8419;52.358;9.752;2023-08-07T00:22:18;99984.00;;;25.01;47.30
16613;BME280;8419;52.358;9.752;2023-08-07T00:25:05;99986.00;;;25.07;47.19
16613;BME280;8419;52.358;9.752;2023-08-07T00:27:50;99988.00;;;25.13;47.11
16613;BME280;8419;52.358;9.752;2023-08-07T00:30:36;99980.00;;;25.03;47.30
16613;BME280;8419;52.358;9.752;2023-08-07T00:33:21;99973.00;;;25.02;47.21
16613;BME280;8419;52.358;9.752;2023-08-07T00:36:07;99986.00;;;24.77;47.52
16613;BME280;8419;52.358;9.752;2023-08-07T00:38:53;99977.00;;;24.62;47.80
16613;BME280;8419;52.358;9.752;2023-08-07T00:41:38;99997.00;;;24.49;48.13
16613;BME280;8419;52.358;9.752;2023-08-07T00:44:23;99989.00;;;24.43;48.24
16613;BME280;8419;52.358;9.752;2023-08-07T00:47:09;99992.00;;;24.35;48.53
16613;BME280;8419;52.358;9.752;2023-08-07T00:49:56;99988.00;;;24.16;49.04
16613;BME280;8419;52.358;9.752;2023-08-07T00:52:43;99994.00;;;24.10;49.27
16613;BME280;8419;52.358;9.752;2023-08-07T00:55:28;99992.00;;;24.09;49.38
16613;BME280;8419;52.358;9.752;2023-08-07T00:58:14;99999.00;;;24.07;49.52
16613;BME280;8419;52.358;9.752;2023-08-07T01:01:00;100003.00;;;24.04;49.62
16613;BME280;8419;52.358;9.752;2023-08-07T01:03:46;100002.00;;;24.04;49.73
16613;BME280;8419;52.358;9.752;2023-08-07T01:06:31;100006.00;;;24.01;49.87
16613;BME280;8419;52.358;9.752;2023-08-07T01:09:17;100004.00;;;23.92;50.10
16613;BME280;8419;52.358;9.752;2023-08-07T01:12:13;100001.00;;;24.00;49.94
16613;BME280;8419;52.358;9.752;2023-08-07T01:15:07;99996.00;;;23.99;49.87
16613;BME280;8419;52.358;9.752;2023-08-07T01:17:56;99994.00;;;23.97;49.96
16613;BME280;8419;52.358;9.752;2023-08-07T01:20:43;99998.00;;;23.93;50.11
16613;BME280;8419;52.358;9.752;2023-08-07T01:23:30;99998.00;;;23.90;50.20
16613;BME280;8419;52.358;9.752;2023-08-07T01:26:18;99994.00;;;23.91;50.22
16613;BME280;8419;52.358;9.752;2023-08-07T01:29:10;99992.00;;;23.88;50.32
16613;BME280;8419;52.358;9.752;2023-08-07T01:31:59;99992.00;;;23.82;50.42
16613;BME280;8419;52.358;9.752;2023-08-07T01:34:46;99988.00;;;23.86;50.37
16613;BME280;8419;52.358;9.752;2023-08-07T01:37:35;99995.00;;;23.82;50.48
16613;BME280;8419;52.358;9.752;2023-08-07T01:40:22;99994.00;;;23.76;50.57
16613;BME280;8419;52.358;9.752;2023-08-07T01:43:08;99989.00;;;23.71;50.66
16613;BME280;8419;52.358;9.752;2023-08-07T01:45:54;99986.00;;;23.74;50.55
16613;BME280;8419;52.358;9.752;2023-08-07T01:48:39;99994.00;;;23.71;50.58
16613;BME280;8419;52.358;9.752;2023-08-07T01:51:25;99992.00;;;23.71;50.64
16613;BME280;8419;52.358;9.752;2023-08-07T01:54:10;99996.00;;;23.78;50.49
16613;BME280;8419;52.358;9.752;2023-08-07T01:56:56;100002.00;;;23.76;50.55
16613;BME280;8419;52.358;9.752;2023-08-07T01:59:42;99995.00;;;23.69;50.74
16613;BME280;8419;52.358;9.752;2023-08-07T02:02:29;99986.00;;;23.68;50.78
16613;BME280;8419;52.358;9.752;2023-08-07T02:05:15;99983.00;;;23.69;50.79
16613;BME280;8419;52.358;9.752;2023-08-07T02:08:00;99977.00;;;23.61;50.96
16613;BME280;8419;52.358;9.752;2023-08-07T02:10:45;99975.00;;;23.63;50.93
16613;BME280;8419;52.358;9.752;2023-08-07T02:13:31;99980.00;;;23.56;51.09
16613;BME280;8419;52.358;9.752;2023-08-07T02:16:16;99983.00;;;23.58;51.05
16613;BME280;8419;52.358;9.752;2023-08-07T02:19:02;99984.00;;;23.52;51.07
16613;BME280;8419;52.358;9.752;2023-08-07T02:21:47;99998.00;;;23.54;51.06
16613;BME280;8419;52.358;9.752;2023-08-07T02:24:34;99980.00;;;23.50;51.11
16613;BME280;8419;52.358;9.752;2023-08-07T02:27:19;99982.00;;;23.49;51.07
16613;BME280;8419;52.358;9.752;2023-08-07T02:30:07;99987.00;;;23.49;51.04
16613;BME280;8419;52.358;9.752;2023-08-07T02:32:53;99983.00;;;23.52;51.00
16613;BME280;8419;52.358;9.752;2023-08-07T02:35:38;99985.00;;;23.50;50.98
16613;BME280;8419;52.358;9.752;2023-08-07T02:38:25;99988.00;;;23.48;51.01
16613;BME280;8419;52.358;9.752;2023-08-07T02:41:11;99983.00;;;23.55;51.03
16613;BME280;8419;52.358;9.752;2023-08-07T02:43:57;99989.00;;;23.59;50.95
16613;BME280;8419;52.358;9.752;2023-08-07T02:46:43;99978.00;;;23.60;50.91
16613;BME280;8419;52.358;9.752;2023-08-07T02:49:28;99982.00;;;23.63;50.89
16613;BME280;8419;52.358;9.752;2023-08-07T02:52:14;99981.00;;;23.67;50.79
16613;BME280;8419;52.358;9.752;2023-08-07T02:54:59;99986.00;;;23.70;50.77
16613;BME280;8419;52.358;9.752;2023-08-07T02:57:45;99984.00;;;23.70;50.83
16613;BME280;8419;52.358;9.752;2023-08-07T03:00:30;99986.00;;;23.78;50.64
16613;BME280;8419;52.358;9.752;2023-08-07T03:03:16;99992.00;;;23.78;50.61
16613;BME280;8419;52.358;9.752;2023-08-07T03:06:01;99998.00;;;23.80;50.54
16613;BME280;8419;52.358;9.752;2023-08-07T03:08:47;100000.00;;;23.71;50.71
16613;BME280;8419;52.358;9.752;2023-08-07T03:11:32;99995.00;;;23.69;50.73
16613;BME280;8419;52.358;9.752;2023-08-07T03:14:18;99993.00;;;23.81;50.50
16613;BME280;8419;52.358;9.752;2023-08-07T03:17:04;99992.00;;;23.80;50.56
16613;BME280;8419;52.358;9.752;2023-08-07T03:19:49;99980.00;;;23.79;50.59
16613;BME280;8419;52.358;9.752;2023-08-07T03:22:35;99987.00;;;23.80;50.56
16613;BME280;8419;52.358;9.752;2023-08-07T03:25:20;99996.00;;;23.85;50.51
16613;BME280;8419;52.358;9.752;2023-08-07T03:28:05;100005.00;;;23.92;50.48
16613;BME280;8419;52.358;9.752;2023-08-07T03:30:51;100006.00;;;23.95;50.33
16613;BME280;8419;52.358;9.752;2023-08-07T03:33:39;100004.00;;;23.93;50.36
16613;BME280;8419;52.358;9.752;2023-08-07T03:36:25;99987.00;;;23.98;50.23
16613;BME280;8419;52.358;9.752;2023-08-07T03:39:11;100005.00;;;23.98;50.27
16613;BME280;8419;52.358;9.752;2023-08-07T03:41:57;100009.00;;;24.03;50.26
16613;BME280;8419;52.358;9.752;2023-08-07T03:44:42;100004.00;;;24.03;50.18
16613;BME280;8419;52.358;9.752;2023-08-07T03:47:28;100013.00;;;24.04;50.13
16613;BME280;8419;52.358;9.752;2023-08-07T03:50:13;100011.00;;;24.01;50.15
16613;BME280;8419;52.358;9.752;2023-08-07T03:52:58;100014.00;;;24.01;50.23
16613;BME280;8419;52.358;9.752;2023-08-07T03:55:45;100015.00;;;24.00;50.31
16613;BME280;8419;52.358;9.752;2023-08-07T03:58:34;100015.00;;;24.03;50.21
16613;BME280;8419;52.358;9.752;2023-08-07T04:01:20;100017.00;;;23.98;50.31
16613;BME280;8419;52.358;9.752;2023-08-07T04:04:05;100014.00;;;23.95;50.46
16613;BME280;8419;52.358;9.752;2023-08-07T04:06:51;100019.00;;;24.00;50.32
16613;BME280;8419;52.358;9.752;2023-08-07T04:09:36;100017.00;;;24.02;50.28
16613;BME280;8419;52.358;9.752;2023-08-07T04:12:22;100010.00;;;24.10;50.14
16613;BME280;8419;52.358;9.752;2023-08-07T04:15:09;100024.00;;;24.10;50.10
16613;BME280;8419;52.358;9.752;2023-08-07T04:17:56;100017.00;;;24.08;50.08
16613;BME280;8419;52.358;9.752;2023-08-07T04:20:42;100006.00;;;24.09;50.07
16613;BME280;8419;52.358;9.752;2023-08-07T04:23:27;100023.00;;;24.05;50.23
16613;BME280;8419;52.358;9.752;2023-08-07T04:26:13;100018.00;;;24.09;50.09
16613;BME280;8419;52.358;9.752;2023-08-07T04:28:59;100032.00;;;24.09;50.10
16613;BME280;8419;52.358;9.752;2023-08-07T04:31:44;100036.00;;;24.11;50.05
16613;BME280;8419;52.358;9.752;2023-08-07T04:34:30;100033.00;;;24.14;50.03
16613;BME280;8419;52.358;9.752;2023-08-07T04:37:16;100035.00;;;24.15;50.06
16613;BME280;8419;52.358;9.752;2023-08-07T04:40:02;100037.00;;;24.22;49.95
16613;BME280;8419;52.358;9.752;2023-08-07T04:42:49;100033.00;;;24.23;49.94
16613;BME280;8419;52.358;9.752;2023-08-07T04:45:34;100039.00;;;24.21;49.95
16613;BME280;8419;52.358;9.752;2023-08-07T04:48:22;100035.00;;;24.11;50.11
16613;BME280;8419;52.358;9.752;2023-08-07T04:51:10;100041.00;;;24.14;49.99
16613;BME280;8419;52.358;9.752;2023-08-07T04:53:55;100042.00;;;24.23;49.82
16613;BME280;8419;52.358;9.752;2023-08-07T04:56:41;100044.00;;;24.26;49.77
16613;BME280;8419;52.358;9.752;2023-08-07T04:59:29;100050.00;;;24.28;49.69
16613;BME280;8419;52.358;9.752;2023-08-07T05:02:15;100048.00;;;24.31;49.70
16613;BME280;8419;52.358;9.752;2023-08-07T05:05:01;100058.00;;;24.33;49.73
16613;BME280;8419;52.358;9.752;2023-08-07T05:07:46;100053.00;;;24.40;49.68
16613;BME280;8419;52.358;9.752;2023-08-07T05:10:32;100052.00;;;24.37;49.62
16613;BME280;8419;52.358;9.752;2023-08-07T05:13:17;100064.00;;;24.36;49.58
16613;BME280;8419;52.358;9.752;2023-08-07T05:16:03;100067.00;;;24.41;49.61
16613;BME280;8419;52.358;9.752;2023-08-07T05:18:48;100062.00;;;24.46;49.49
16613;BME280;8419;52.358;9.752;2023-08-07T05:21:34;100063.00;;;24.46;49.42
16613;BME280;8419;52.358;9.752;2023-08-07T05:24:20;100054.00;;;24.43;49.36
16613;BME280;8419;52.358;9.752;2023-08-07T05:27:08;100064.00;;;24.36;49.42
16613;BME280;8419;52.358;9.752;2023-08-07T05:29:53;100068.00;;;24.44;49.36
16613;BME280;8419;52.358;9.752;2023-08-07T05:32:39;100062.00;;;24.50;49.26
16613;BME280;8419;52.358;9.752;2023-08-07T05:35:25;100071.00;;;24.53;49.23
16613;BME280;8419;52.358;9.752;2023-08-07T05:38:11;100070.00;;;24.63;49.09
16613;BME280;8419;52.358;9.752;2023-08-07T05:40:59;100073.00;;;24.63;48.97
16613;BME280;8419;52.358;9.752;2023-08-07T05:43:45;100073.00;;;24.71;48.95
16613;BME280;8419;52.358;9.752;2023-08-07T05:46:30;100070.00;;;24.76;48.74
16613;BME280;8419;52.358;9.752;2023-08-07T05:49:16;100076.00;;;24.79;48.62
16613;BME280;8419;52.358;9.752;2023-08-07T05:52:02;100082.00;;;24.73;48.75
16613;BME280;8419;52.358;9.752;2023-08-07T05:54:47;100085.00;;;24.79;48.55
16613;BME280;8419;52.358;9.752;2023-08-07T05:57:33;100091.00;;;24.79;48.33
16613;BME280;8419;52.358;9.752;2023-08-07T06:00:19;100084.00;;;24.79;48.46
16613;BME280;8419;52.358;9.752;2023-08-07T06:03:04;100087.00;;;24.76;48.40
16613;BME280;8419;52.358;9.752;2023-08-07T06:05:50;100093.00;;;24.75;48.42
16613;BME280;8419;52.358;9.752;2023-08-07T06:08:36;100094.00;;;24.79;48.29
16613;BME280;8419;52.358;9.752;2023-08-07T06:11:22;100086.00;;;24.82;48.08
16613;BME280;8419;52.358;9.752;2023-08-07T06:14:07;100093.00;;;24.89;48.00
16613;BME280;8419;52.358;9.752;2023-08-07T06:16:53;100098.00;;;24.92;47.71
16613;BME280;8419;52.358;9.752;2023-08-07T06:19:38;100095.00;;;24.94;47.71
16613;BME280;8419;52.358;9.752;2023-08-07T06:22:24;100086.00;;;24.95;47.61
16613;BME280;8419;52.358;9.752;2023-08-07T06:25:10;100098.00;;;25.03;47.49
16613;BME280;8419;52.358;9.752;2023-08-07T06:27:55;100098.00;;;25.09;46.96
16613;BME280;8419;52.358;9.752;2023-08-07T06:30:41;100104.00;;;25.09;47.06
16613;BME280;8419;52.358;9.752;2023-08-07T06:33:26;100100.00;;;25.07;47.09
16613;BME280;8419;52.358;9.752;2023-08-07T06:36:12;100099.00;;;25.09;46.96
16613;BME280;8419;52.358;9.752;2023-08-07T06:38:57;100105.00;;;25.13;46.82
16613;BME280;8419;52.358;9.752;2023-08-07T06:41:43;100102.00;;;25.18;46.73
16613;BME280;8419;52.358;9.752;2023-08-07T06:44:30;100100.00;;;25.20;46.68
16613;BME280;8419;52.358;9.752;2023-08-07T06:47:15;100107.00;;;25.24;46.37
16613;BME280;8419;52.358;9.752;2023-08-07T06:50:01;100097.00;;;25.26;46.50
16613;BME280;8419;52.358;9.752;2023-08-07T06:52:46;100099.00;;;25.35;46.34
16613;BME280;8419;52.358;9.752;2023-08-07T06:55:32;100099.00;;;25.39;46.09
16613;BME280;8419;52.358;9.752;2023-08-07T06:58:18;100106.00;;;25.28;46.25
16613;BME280;8419;52.358;9.752;2023-08-07T07:01:03;100111.00;;;25.28;46.22
16613;BME280;8419;52.358;9.752;2023-08-07T07:03:49;100105.00;;;25.33;46.02
16613;BME280;8419;52.358;9.752;2023-08-07T07:06:38;100106.00;;;25.42;45.93
16613;BME280;8419;52.358;9.752;2023-08-07T07:09:23;100108.00;;;25.49;45.55
16613;BME280;8419;52.358;9.752;2023-08-07T07:12:09;100114.00;;;25.48;45.64
16613;BME280;8419;52.358;9.752;2023-08-07T07:14:54;100113.00;;;25.61;45.43
16613;BME280;8419;52.358;9.752;2023-08-07T07:17:40;100110.00;;;25.70;45.38
16613;BME280;8419;52.358;9.752;2023-08-07T07:20:26;100113.00;;;25.70;45.50
16613;BME280;8419;52.358;9.752;2023-08-07T07:23:11;100121.00;;;25.85;45.48
16613;BME280;8419;52.358;9.752;2023-08-07T07:25:57;100122.00;;;25.92;45.19
16613;BME280;8419;52.358;9.752;2023-08-07T07:28:44;100128.00;;;25.89;45.21
16613;BME280;8419;52.358;9.752;2023-08-07T07:31:32;100130.00;;;25.85;45.16
16613;BME280;8419;52.358;9.752;2023-08-07T07:34:18;100129.00;;;25.85;45.21
16613;BME280;8419;52.358;9.752;2023-08-07T07:37:04;100133.00;;;25.96;45.20
16613;BME280;8419;52.358;9.752;2023-08-07T07:39:50;100138.00;;;26.05;44.95
16613;BME280;8419;52.358;9.752;2023-08-07T07:42:35;100142.00;;;26.27;44.49
16613;BME280;8419;52.358;9.752;2023-08-07T07:45:21;100141.00;;;26.33;44.58
16613;BME280;8419;52.358;9.752;2023-08-07T07:48:06;100132.00;;;26.24;44.24
16613;BME280;8419;52.358;9.752;2023-08-07T07:50:58;100134.00;;;26.15;44.33
16613;BME280;8419;52.358;9.752;2023-08-07T07:53:44;100144.00;;;26.43;43.94
16613;BME280;8419;52.358;9.752;2023-08-07T07:56:30;100138.00;;;26.44;43.62
16613;BME280;8419;52.358;9.752;2023-08-07T07:59:15;100142.00;;;26.53;43.41
16613;BME280;8419;52.358;9.752;2023-08-07T08:02:01;100135.00;;;26.55;43.56
16613;BME280;8419;52.358;9.752;2023-08-07T08:04:46;100144.00;;;26.54;43.47
16613;BME280;8419;52.358;9.752;2023-08-07T08:07:33;100146.00;;;26.55;43.44
16613;BME280;8419;52.358;9.752;2023-08-07T08:10:19;100145.00;;;26.73;43.40
16613;BME280;8419;52.358;9.752;2023-08-07T08:13:05;100146.00;;;27.00;42.66
16613;BME280;8419;52.358;9.752;2023-08-07T08:15:50;100145.00;;;27.17;42.16
16613;BME280;8419;52.358;9.752;2023-08-07T08:18:36;100152.00;;;27.21;41.73
16613;BME280;8419;52.358;9.752;2023-08-07T08:21:23;100152.00;;;27.21;41.62
16613;BME280;8419;52.358;9.752;2023-08-07T08:24:09;100145.00;;;27.19;41.49
16613;BME280;8419;52.358;9.752;2023-08-07T08:26:54;100159.00;;;26.96;41.84
16613;BME280;8419;52.358;9.752;2023-08-07T08:29:40;100158.00;;;26.78;42.07
16613;BME280;8419;52.358;9.752;2023-08-07T08:32:26;100161.00;;;26.78;42.28
16613;BME280;8419;52.358;9.752;2023-08-07T08:35:12;100161.00;;;26.88;42.00
16613;BME280;8419;52.358;9.752;2023-08-07T08:37:57;100168.00;;;27.00;41.88
16613;BME280;8419;52.358;9.752;2023-08-07T08:40:46;100178.00;;;27.11;41.78
16613;BME280;8419;52.358;9.752;2023-08-07T08:43:34;100176.00;;;27.06;41.44
16613;BME280;8419;52.358;9.752;2023-08-07T08:46:25;100163.00;;;27.02;41.68
16613;BME280;8419;52.358;9.752;2023-08-07T08:49:15;100161.00;;;27.14;41.46
16613;BME280;8419;52.358;9.752;2023-08-07T08:52:04;100178.00;;;27.27;41.19
16613;BME280;8419;52.358;9.752;2023-08-07T08:54:50;100170.00;;;27.36;40.93
16613;BME280;8419;52.358;9.752;2023-08-07T08:57:37;100184.00;;;27.26;40.72
16613;BME280;8419;52.358;9.752;2023-08-07T09:00:23;100185.00;;;27.20;40.66
16613;BME280;8419;52.358;9.752;2023-08-07T09:03:11;100185.00;;;27.09;40.82
16613;BME280;8419;52.358;9.752;2023-08-07T09:05:58;100209.00;;;26.72;41.41
16613;BME280;8419;52.358;9.752;2023-08-07T09:08:46;100227.00;;;25.90;42.60
16613;BME280;8419;52.358;9.752;2023-08-07T09:11:35;100232.00;;;25.25;43.63
16613;BME280;8419;52.358;9.752;2023-08-07T09:14:24;100223.00;;;24.77;44.57
16613;BME280;8419;52.358;9.752;2023-08-07T09:17:13;100222.00;;;24.53;45.20
16613;BME280;8419;52.358;9.752;2023-08-07T09:20:00;100221.00;;;24.46;45.64
16613;BME280;8419;52.358;9.752;2023-08-07T09:22:46;100218.00;;;24.38;46.10
16613;BME280;8419;52.358;9.752;2023-08-07T09:25:33;100217.00;;;24.49;46.21
16613;BME280;8419;52.358;9.752;2023-08-07T09:28:19;100225.00;;;24.36;46.64
16613;BME280;8419;52.358;9.752;2023-08-07T09:31:07;100216.00;;;24.12;47.13
16613;BME280;8419;52.358;9.752;2023-08-07T09:33:54;100223.00;;;24.19;47.37
16613;BME280;8419;52.358;9.752;2023-08-07T09:36:41;100216.00;;;24.43;47.48
16613;BME280;8419;52.358;9.752;2023-08-07T09:39:29;100217.00;;;24.73;47.37
16613;BME280;8419;52.358;9.752;2023-08-07T09:42:16;100218.00;;;24.82;47.38
16613;BME280;8419;52.358;9.752;2023-08-07T09:45:19;100217.00;;;24.91;47.52
16613;BME280;8419;52.358;9.752;2023-08-07T09:48:06;100223.00;;;25.35;47.10
16613;BME280;8419;52.358;9.752;2023-08-07T09:50:51;100222.00;;;25.69;46.48
16613;BME280;8419;52.358;9.752;2023-08-07T09:53:37;100232.00;;;25.93;46.04
16613;BME280;8419;52.358;9.752;2023-08-07T09:56:23;100227.00;;;26.16;46.02
16613;BME280;8419;52.358;9.752;2023-08-07T09:59:09;100235.00;;;26.14;45.50
16613;BME280;8419;52.358;9.752;2023-08-07T10:01:55;100226.00;;;25.78;45.86
16613;BME280;8419;52.358;9.752;2023-08-07T10:04:40;100234.00;;;25.24;46.23
16613;BME280;8419;52.358;9.752;2023-08-07T10:07:27;100241.00;;;25.13;46.71
16613;BME280;8419;52.358;9.752;2023-08-07T10:10:13;100239.00;;;24.97;47.14
16613;BME280;8419;52.358;9.752;2023-08-07T10:13:01;100230.00;;;24.98;47.44
16613;BME280;8419;52.358;9.752;2023-08-07T10:15:48;100242.00;;;25.11;47.37
16613;BME280;8419;52.358;9.752;2023-08-07T10:18:33;100228.00;;;25.30;47.18
16613;BME280;8419;52.358;9.752;2023-08-07T10:21:19;100231.00;;;25.60;46.81
16613;BME280;8419;52.358;9.752;2023-08-07T10:24:06;100246.00;;;25.85;46.05
16613;BME280;8419;52.358;9.752;2023-08-07T10:26:54;100237.00;;;26.08;44.86
16613;BME280;8419;52.358;9.752;2023-08-07T10:29:40;100253.00;;;26.22;44.29
16613;BME280;8419;52.358;9.752;2023-08-07T10:32:28;100247.00;;;26.41;44.27
16613;BME280;8419;52.358;9.752;2023-08-07T10:35:24;100245.00;;;26.63;43.48
16613;BME280;8419;52.358;9.752;2023-08-07T10:38:11;100246.00;;;26.73;43.64
16613;BME280;8419;52.358;9.752;2023-08-07T10:41:08;100250.00;;;26.87;43.00
16613;BME280;8419;52.358;9.752;2023-08-07T10:43:53;100241.00;;;27.34;42.76
16613;BME280;8419;52.358;9.752;2023-08-07T10:46:48;100239.00;;;27.61;41.69
16613;BME280;8419;52.358;9.752;2023-08-07T10:49:36;100224.00;;;27.60;40.78
16613;BME280;8419;52.358;9.752;2023-08-07T10:52:21;100248.00;;;27.69;40.44
16613;BME280;8419;52.358;9.752;2023-08-07T10:55:14;100260.00;;;27.83;40.38
16613;BME280;8419;52.358;9.752;2023-08-07T10:58:01;100247.00;;;27.79;39.51
16613;BME280;8419;52.358;9.752;2023-08-07T11:00:46;100262.00;;;27.88;39.68
16613;BME280;8419;52.358;9.752;2023-08-07T11:03:35;100251.00;;;28.01;39.44
16613;BME280;8419;52.358;9.752;2023-08-07T11:06:25;100245.00;;;28.16;38.88
16613;BME280;8419;52.358;9.752;2023-08-07T11:09:12;100239.00;;;28.10;38.76
16613;BME280;8419;52.358;9.752;2023-08-07T11:11:57;100227.00;;;28.21;38.69
16613;BME280;8419;52.358;9.752;2023-08-07T11:14:44;100247.00;;;28.38;38.06
16613;BME280;8419;52.358;9.752;2023-08-07T11:17:30;100244.00;;;28.43;37.25
16613;BME280;8419;52.358;9.752;2023-08-07T11:20:16;100269.00;;;28.25;36.09
16613;BME280;8419;52.358;9.752;2023-08-07T11:23:03;100261.00;;;27.92;36.19
16613;BME280;8419;52.358;9.752;2023-08-07T11:25:50;100261.00;;;27.83;36.88
16613;BME280;8419;52.358;9.752;2023-08-07T11:28:39;100245.00;;;28.20;36.36
16613;BME280;8419;52.358;9.752;2023-08-07T11:31:25;100248.00;;;28.32;35.19
16613;BME280;8419;52.358;9.752;2023-08-07T11:34:11;100282.00;;;28.20;34.49
16613;BME280;8419;52.358;9.752;2023-08-07T11:36:57;100267.00;;;27.99;33.43
16613;BME280;8419;52.358;9.752;2023-08-07T11:39:43;100279.00;;;27.79;33.96
16613;BME280;8419;52.358;9.752;2023-08-07T11:42:29;100281.00;;;27.47;34.23
16613;BME280;8419;52.358;9.752;2023-08-07T11:45:15;100294.00;;;26.83;35.59
16613;BME280;8419;52.358;9.752;2023-08-07T11:48:00;100280.00;;;26.68;35.89
16613;BME280;8419;52.358;9.752;2023-08-07T11:50:51;100296.00;;;26.84;35.89
16613;BME280;8419;52.358;9.752;2023-08-07T11:53:38;100294.00;;;27.07;35.70
16613;BME280;8419;52.358;9.752;2023-08-07T11:56:24;100306.00;;;27.06;34.91
16613;BME280;8419;52.358;9.752;2023-08-07T11:59:10;100314.00;;;27.16;34.84
16613;BME280;8419;52.358;9.752;2023-08-07T12:01:56;100301.00;;;27.02;34.13
16613;BME280;8419;52.358;9.752;2023-08-07T12:04:42;100306.00;;;27.18;33.87
16613;BME280;8419;52.358;9.752;2023-08-07T12:07:28;100312.00;;;27.59;33.36
16613;BME280;8419;52.358;9.752;2023-08-07T12:10:14;100307.00;;;27.86;32.41
16613;BME280;8419;52.358;9.752;2023-08-07T12:13:00;100290.00;;;28.03;32.22
16613;BME280;8419;52.358;9.752;2023-08-07T12:15:52;100288.00;;;28.60;31.74
16613;BME280;8419;52.358;9.752;2023-08-07T12:18:38;100295.00;;;29.08;31.53
16613;BME280;8419;52.358;9.752;2023-08-07T12:21:24;100311.00;;;29.00;30.88
16613;BME280;8419;52.358;9.752;2023-08-07T12:24:09;100309.00;;;28.61;31.85
16613;BME280;8419;52.358;9.752;2023-08-07T12:26:55;100301.00;;;28.31;32.15
16613;BME280;8419;52.358;9.752;2023-08-07T12:29:41;100327.00;;;28.24;32.75
16613;BME280;8419;52.358;9.752;2023-08-07T12:32:26;100337.00;;;27.94;32.64
16613;BME280;8419;52.358;9.752;2023-08-07T12:35:12;100332.00;;;27.73;32.51
16613;BME280;8419;52.358;9.752;2023-08-07T12:37:57;100350.00;;;27.40;33.01
16613;BME280;8419;52.358;9.752;2023-08-07T12:40:43;100362.00;;;27.17;33.39
16613;BME280;8419;52.358;9.752;2023-08-07T12:43:29;100363.00;;;27.16;33.18
16613;BME280;8419;52.358;9.752;2023-08-07T12:46:14;100364.00;;;27.17;32.51
16613;BME280;8419;52.358;9.752;2023-08-07T12:49:00;100363.00;;;27.38;32.02
16613;BME280;8419;52.358;9.752;2023-08-07T12:51:49;100357.00;;;27.60;31.64
16613;BME280;8419;52.358;9.752;2023-08-07T12:54:35;100359.00;;;28.07;31.30
16613;BME280;8419;52.358;9.752;2023-08-07T12:57:20;100362.00;;;28.03;31.06
16613;BME280;8419;52.358;9.752;2023-08-07T13:00:09;100369.00;;;27.87;29.94
16613;BME280;8419;52.358;9.752;2023-08-07T13:02:57;100369.00;;;27.66;29.74
16613;BME280;8419;52.358;9.752;2023-08-07T13:05:44;100368.00;;;27.63;29.73
16613;BME280;8419;52.358;9.752;2023-08-07T13:08:30;100358.00;;;27.87;29.69
16613;BME280;8419;52.358;9.752;2023-08-07T13:11:18;100377.00;;;28.28;28.70
16613;BME280;8419;52.358;9.752;2023-08-07T13:14:04;100370.00;;;29.03;27.99
16613;BME280;8419;52.358;9.752;2023-08-07T13:16:51;100376.00;;;29.59;27.82
16613;BME280;8419;52.358;9.752;2023-08-07T13:19:36;100377.00;;;30.28;27.57
16613;BME280;8419;52.358;9.752;2023-08-07T13:22:22;100385.00;;;29.62;28.18
16613;BME280;8419;52.358;9.752;2023-08-07T13:25:09;100373.00;;;28.99;28.73
16613;BME280;8419;52.358;9.752;2023-08-07T13:27:55;100383.00;;;28.45;29.65
16613;BME280;8419;52.358;9.752;2023-08-07T13:30:41;100407.00;;;28.18;30.09
16613;BME280;8419;52.358;9.752;2023-08-07T13:33:27;100400.00;;;28.10;29.95
16613;BME280;8419;52.358;9.752;2023-08-07T13:36:13;100404.00;;;28.47;29.63
16613;BME280;8419;52.358;9.752;2023-08-07T13:38:58;100402.00;;;28.63;28.93
16613;BME280;8419;52.358;9.752;2023-08-07T13:41:45;100387.00;;;28.62;29.16
16613;BME280;8419;52.358;9.752;2023-08-07T13:44:31;100416.00;;;28.56;28.87
16613;BME280;8419;52.358;9.752;2023-08-07T13:47:17;100395.00;;;28.44;29.14
16613;BME280;8419;52.358;9.752;2023-08-07T13:50:07;100421.00;;;28.55;29.16
16613;BME280;8419;52.358;9.752;2023-08-07T13:52:57;100427.00;;;28.81;28.51
16613;BME280;8419;52.358;9.752;2023-08-07T13:55:44;100408.00;;;28.91;28.27
16613;BME280;8419;52.358;9.752;2023-08-07T13:58:29;100421.00;;;28.99;27.94
16613;BME280;8419;52.358;9.752;2023-08-07T14:01:15;100433.00;;;28.65;28.40
16613;BME280;8419;52.358;9.752;2023-08-07T14:04:01;100425.00;;;28.50;28.77
16613;BME280;8419;52.358;9.752;2023-08-07T14:06:49;100422.00;;;28.53;28.90
16613;BME280;8419;52.358;9.752;2023-08-07T14:09:34;100433.00;;;28.59;29.09
16613;BME280;8419;52.358;9.752;2023-08-07T14:12:20;100427.00;;;28.84;28.62
16613;BME280;8419;52.358;9.752;2023-08-07T14:15:07;100443.00;;;28.89;27.97
16613;BME280;8419;52.358;9.752;2023-08-07T14:17:52;100441.00;;;29.39;27.13
16613;BME280;8419;52.358;9.752;2023-08-07T14:20:38;100459.00;;;29.89;26.29
16613;BME280;8419;52.358;9.752;2023-08-07T14:23:24;100444.00;;;29.60;26.38
16613;BME280;8419;52.358;9.752;2023-08-07T14:26:12;100438.00;;;29.66;26.21
16613;BME280;8419;52.358;9.752;2023-08-07T14:28:58;100451.00;;;29.81;26.31
16613;BME280;8419;52.358;9.752;2023-08-07T14:31:44;100456.00;;;30.38;25.75
16613;BME280;8419;52.358;9.752;2023-08-07T14:34:29;100453.00;;;30.64;25.46
16613;BME280;8419;52.358;9.752;2023-08-07T14:37:15;100458.00;;;30.58;24.98
16613;BME280;8419;52.358;9.752;2023-08-07T14:40:02;100473.00;;;30.11;25.13
16613;BME280;8419;52.358;9.752;2023-08-07T14:42:50;100475.00;;;29.52;25.29